Time;durP1;ratioP1;P1;durP2;ratioP2;P2;SDS_P1;SDS_P2;PMS_P1;PMS_P2;Temp;Humidity;BMP_temperature;BMP_pressure;BME280_temperature;BME280_humidity;BME280_pressure;Samples;Min_cycle;Max_cycle;Signal;HPM_P1;HPM_P2
2022/06/25 00:00:01;;;;;;;21.95;20.05;;;19.00;99.90;;;;;;4978868;28;20047;-75
2022/06/25 00:02:27;;;;;;;21.45;19.35;;;19.00;99.90;;;;;;4962921;28;20038;-75
2022/06/25 00:07:36;;;;;;;20.20;18.42;;;18.90;99.90;;;;;;4978573;28;20047;-74
2022/06/25 00:10:02;;;;;;;19.23;17.42;;;19.00;99.90;;;;;;4962588;28;20035;-74
2022/06/25 00:12:34;;;;;;;18.88;16.98;;;18.90;99.90;;;;;;4979018;28;20070;-74
2022/06/25 00:15:05;;;;;;;17.70;16.10;;;18.90;99.90;;;;;;4978977;28;20038;-74
2022/06/25 00:17:32;;;;;;;18.67;16.75;;;18.90;99.90;;;;;;4962931;28;20133;-74
2022/06/25 00:19:58;;;;;;;19.73;17.83;;;18.80;99.90;;;;;;4978524;28;20498;-74
2022/06/25 00:22:24;;;;;;;16.15;14.75;;;18.80;99.90;;;;;;4978818;28;20042;-74
2022/06/25 00:24:50;;;;;;;16.52;15.07;;;18.80;99.90;;;;;;4978571;28;20046;-74
2022/06/25 00:27:15;;;;;;;17.65;15.95;;;18.80;99.90;;;;;;4978267;28;20046;-74
2022/06/25 00:29:41;;;;;;;18.00;16.27;;;18.80;99.90;;;;;;4978328;28;20057;-74
2022/06/25 00:32:09;;;;;;;16.73;15.10;;;18.80;99.90;;;;;;4962378;28;20034;-74
2022/06/25 00:34:35;;;;;;;15.40;13.73;;;18.80;99.90;;;;;;4978196;28;20046;-74
2022/06/25 00:37:01;;;;;;;14.35;13.20;;;18.70;99.90;;;;;;4978156;28;20046;-74
2022/06/25 00:39:27;;;;;;;15.77;14.23;;;18.80;99.90;;;;;;4978166;28;20041;-74
2022/06/25 00:41:52;;;;;;;15.40;14.02;;;18.70;99.90;;;;;;4978239;28;20042;-75
2022/06/25 00:44:18;;;;;;;14.43;12.93;;;18.70;99.90;;;;;;4962407;28;20046;-75
2022/06/25 00:46:47;;;;;;;14.90;13.50;;;18.70;99.90;;;;;;4978075;28;20534;-75
2022/06/25 00:49:13;;;;;;;13.85;12.63;;;18.70;99.90;;;;;;4978098;28;20038;-74
2022/06/25 00:51:40;;;;;;;12.75;11.60;;;18.60;99.90;;;;;;4977671;28;20045;-74
2022/06/25 00:54:09;;;;;;;13.63;12.05;;;18.60;99.90;;;;;;4977791;28;20040;-74
2022/06/25 00:56:38;;;;;;;12.82;11.60;;;18.50;99.90;;;;;;4977714;28;20129;-74
2022/06/25 00:59:05;;;;;;;13.13;11.27;;;18.50;99.90;;;;;;4961769;28;20498;-74
2022/06/25 01:01:34;;;;;;;13.68;12.48;;;18.50;99.90;;;;;;4977536;28;20372;-74
2022/06/25 01:03:59;;;;;;;12.82;11.60;;;18.40;99.90;;;;;;4961440;28;20049;-74
2022/06/25 01:06:25;;;;;;;13.82;11.88;;;18.40;99.90;;;;;;4977759;28;20039;-74
2022/06/25 01:08:51;;;;;;;12.52;11.15;;;18.30;99.90;;;;;;4977770;28;20046;-74
2022/06/25 01:11:17;;;;;;;11.77;10.77;;;18.30;99.90;;;;;;4977704;28;20399;-74
2022/06/25 01:13:42;;;;;;;11.80;10.40;;;18.30;99.90;;;;;;4977941;28;20078;-74
2022/06/25 01:16:08;;;;;;;11.40;10.38;;;18.10;99.90;;;;;;4961610;28;20042;-74
2022/06/25 01:18:33;;;;;;;12.93;11.35;;;18.10;99.90;;;;;;4977352;28;20538;-74
2022/06/25 01:21:02;;;;;;;11.57;10.43;;;18.00;99.90;;;;;;4961415;28;20223;-75
2022/06/25 01:23:29;;;;;;;16.55;10.50;;;18.00;99.90;;;;;;4977506;28;20042;-74
2022/06/25 01:25:55;;;;;;;11.73;10.57;;;17.90;99.90;;;;;;4977088;28;20621;-74
2022/06/25 01:28:21;;;;;;;12.00;10.90;;;17.90;99.90;;;;;;4977234;28;20129;-74
2022/06/25 01:30:46;;;;;;;12.88;11.27;;;17.80;99.90;;;;;;4976975;28;20401;-74
2022/06/25 01:33:12;;;;;;;12.35;11.15;;;17.90;99.90;;;;;;4977052;28;20045;-74
2022/06/25 01:35:38;;;;;;;11.10;10.00;;;17.80;99.90;;;;;;4977072;28;20060;-74
2022/06/25 01:38:03;;;;;;;12.05;10.82;;;17.90;99.90;;;;;;4977056;28;20049;-74
2022/06/25 01:40:31;;;;;;;11.55;10.35;;;17.90;99.90;;;;;;4977344;28;20034;-74
2022/06/25 01:43:02;;;;;;;10.35;9.48;;;17.90;99.90;;;;;;4976953;28;20042;-74
2022/06/25 01:45:31;;;;;;;10.38;9.43;;;17.90;99.90;;;;;;4960965;28;20136;-74
2022/06/25 01:47:57;;;;;;;11.95;9.35;;;17.90;99.90;;;;;;4977009;28;20046;-74
2022/06/25 01:50:23;;;;;;;11.02;9.02;;;17.90;99.90;;;;;;4977417;28;20042;-74
2022/06/25 01:52:49;;;;;;;10.07;9.07;;;18.00;99.90;;;;;;4993033;28;20052;-74
2022/06/25 01:55:16;;;;;;;9.80;8.82;;;18.00;99.90;;;;;;4977082;28;20088;-72
2022/06/25 01:57:42;;;;;;;9.18;8.30;;;18.00;99.90;;;;;;4960628;28;20038;-74
2022/06/25 02:00:11;;;;;;;9.85;8.85;;;18.00;99.90;;;;;;4993051;28;20057;-74
2022/06/25 02:02:37;;;;;;;10.00;8.25;;;18.00;99.90;;;;;;4976506;28;20046;-74
2022/06/25 02:05:05;;;;;;;9.55;7.93;;;18.00;99.90;;;;;;4976551;28;20038;-74
2022/06/25 02:07:30;;;;;;;8.85;7.97;;;18.00;99.90;;;;;;4959736;28;20038;-74
2022/06/25 02:09:56;;;;;;;8.68;7.75;;;18.00;99.90;;;;;;4976741;28;20046;-74
2022/06/25 02:12:21;;;;;;;9.38;8.50;;;18.00;99.90;;;;;;4976459;28;20406;-74
2022/06/25 02:14:47;;;;;;;9.43;8.30;;;18.00;99.90;;;;;;4976607;28;20039;-74
2022/06/25 02:17:13;;;;;;;10.07;8.02;;;18.00;99.90;;;;;;4976494;28;20042;-74
2022/06/25 02:19:38;;;;;;;10.82;8.77;;;18.00;99.90;;;;;;4960806;28;20041;-73
2022/06/25 02:22:04;;;;;;;8.95;8.15;;;17.90;99.90;;;;;;4976359;28;20410;-74
2022/06/25 02:24:30;;;;;;;9.95;8.32;;;17.90;99.90;;;;;;4976412;28;20148;-74
2022/06/25 02:26:55;;;;;;;9.18;8.38;;;17.90;99.90;;;;;;4976257;28;20042;-74
2022/06/25 02:29:21;;;;;;;9.50;8.35;;;17.90;99.90;;;;;;4992497;28;20124;-74
2022/06/25 02:31:47;;;;;;;10.93;8.02;;;17.90;99.90;;;;;;4976288;28;20215;-74
2022/06/25 02:34:12;;;;;;;8.85;7.80;;;17.90;99.90;;;;;;4976265;28;20074;-74
2022/06/25 02:36:38;;;;;;;7.60;6.88;;;17.90;99.90;;;;;;4976348;28;20046;-74
2022/06/25 02:39:04;;;;;;;8.32;7.53;;;17.80;99.90;;;;;;4976368;28;20039;-74
2022/06/25 02:41:29;;;;;;;8.10;7.30;;;17.80;99.90;;;;;;4976179;28;20486;-74
2022/06/25 02:43:55;;;;;;;9.13;7.57;;;17.80;99.90;;;;;;4976163;28;20137;-74
2022/06/25 02:46:20;;;;;;;10.32;7.05;;;17.80;99.90;;;;;;4976135;28;20043;-74
2022/06/25 02:48:46;;;;;;;9.27;7.35;;;17.70;99.90;;;;;;4976418;28;20120;-74
2022/06/25 02:51:11;;;;;;;8.82;7.72;;;17.70;99.90;;;;;;4976064;28;20553;-74
2022/06/25 02:53:37;;;;;;;14.32;7.80;;;17.70;99.90;;;;;;4976150;28;20077;-74
2022/06/25 02:58:54;;;;;;;9.48;7.60;;;17.70;99.90;;;;;;4975944;28;20050;-74
2022/06/25 03:01:23;;;;;;;8.90;8.10;;;17.60;99.90;;;;;;4959871;28;20505;-73
2022/06/25 03:03:50;;;;;;;7.93;7.13;;;17.60;99.90;;;;;;4992186;28;20073;-73
2022/06/25 03:06:15;;;;;;;9.63;8.00;;;17.60;99.90;;;;;;4992283;28;20043;-74
2022/06/25 03:08:41;;;;;;;8.32;7.53;;;17.60;99.90;;;;;;4959903;28;20030;-74
2022/06/25 03:11:07;;;;;;;8.43;7.63;;;17.50;99.90;;;;;;4959883;28;20146;-74
2022/06/25 03:13:35;;;;;;;8.30;7.47;;;17.50;99.90;;;;;;4975922;28;20080;-74
2022/06/25 03:16:02;;;;;;;9.50;7.55;;;17.50;99.90;;;;;;4976094;28;20050;-73
2022/06/25 03:18:27;;;;;;;8.00;7.20;;;17.50;99.90;;;;;;4993516;28;20050;-74
2022/06/25 03:20:53;;;;;;;9.10;6.97;;;17.50;99.90;;;;;;4979734;28;20041;-74
2022/06/25 03:23:22;;;;;;;8.35;7.55;;;17.50;99.90;;;;;;4979971;28;20054;-73
2022/06/25 03:25:48;;;;;;;7.60;6.90;;;17.50;99.90;;;;;;4979595;28;20046;-73
2022/06/25 03:28:14;;;;;;;8.68;7.70;;;17.50;99.90;;;;;;4979413;28;20041;-73
2022/06/25 03:30:40;;;;;;;7.63;6.93;;;17.50;99.90;;;;;;4979660;28;20120;-74
2022/06/25 03:33:06;;;;;;;7.43;6.72;;;17.50;99.90;;;;;;4979643;28;20073;-74
2022/06/25 03:35:31;;;;;;;8.00;7.00;;;17.60;99.90;;;;;;4979416;28;20409;-74
2022/06/25 03:37:57;;;;;;;9.35;6.90;;;17.60;99.90;;;;;;4979721;28;20038;-74
2022/06/25 03:40:22;;;;;;;10.07;7.55;;;17.50;99.90;;;;;;4979395;28;20459;-74
2022/06/25 03:42:49;;;;;;;8.40;6.57;;;17.50;99.90;;;;;;4979466;28;20451;-74
2022/06/25 03:45:15;;;;;;;8.10;6.97;;;17.50;99.90;;;;;;4979175;28;20041;-74
2022/06/25 03:47:41;;;;;;;9.45;7.18;;;17.50;99.90;;;;;;4979280;28;20050;-74
2022/06/25 03:50:07;;;;;;;8.75;6.63;;;17.50;99.90;;;;;;4962972;28;20045;-73
2022/06/25 03:52:33;;;;;;;10.05;7.38;;;17.50;99.90;;;;;;4979140;28;20406;-73
2022/06/25 03:54:59;;;;;;;9.63;7.45;;;17.50;99.90;;;;;;4979207;28;20039;-73
2022/06/25 03:57:24;;;;;;;8.10;6.80;;;17.50;99.90;;;;;;4979169;28;20112;-73
2022/06/25 03:59:51;;;;;;;7.82;7.13;;;17.50;99.90;;;;;;4979100;28;20482;-73
2022/06/25 04:02:16;;;;;;;10.13;7.20;;;17.50;99.90;;;;;;4995216;28;20522;-73
2022/06/25 04:04:42;;;;;;;9.70;7.20;;;17.50;99.90;;;;;;4978752;28;20078;-73
2022/06/25 04:07:08;;;;;;;9.43;6.43;;;17.50;99.90;;;;;;4978543;28;20395;-74
2022/06/25 04:09:33;;;;;;;8.70;6.65;;;17.50;99.90;;;;;;4978649;28;20418;-74
2022/06/25 04:11:59;;;;;;;9.80;6.88;;;17.60;99.90;;;;;;4978585;28;20045;-74
2022/06/25 04:14:24;;;;;;;8.07;6.47;;;17.60;99.90;;;;;;4978754;28;20038;-74
2022/06/25 04:16:50;;;;;;;7.43;6.65;;;17.60;99.90;;;;;;4978834;28;20042;-74
2022/06/25 04:19:16;;;;;;;7.82;6.15;;;17.60;99.90;;;;;;4978531;28;20046;-74
2022/06/25 04:21:42;;;;;;;7.68;6.95;;;17.60;99.90;;;;;;4978411;28;20038;-74
2022/06/25 04:24:07;;;;;;;6.70;6.10;;;17.60;99.90;;;;;;4978855;28;20052;-74
2022/06/25 04:26:33;;;;;;;6.68;5.90;;;17.70;99.90;;;;;;4978522;28;20125;-74
2022/06/25 04:29:04;;;;;;;8.00;6.70;;;17.70;99.90;;;;;;4978316;28;20472;-74
2022/06/25 04:31:32;;;;;;;9.40;6.80;;;17.70;99.90;;;;;;4961460;28;20420;-74
2022/06/25 04:33:58;;;;;;;10.30;6.70;;;17.70;99.90;;;;;;4978274;28;20089;-73
2022/06/25 04:36:25;;;;;;;7.10;5.97;;;17.80;99.90;;;;;;4978222;28;20517;-73
2022/06/25 04:38:50;;;;;;;8.93;6.72;;;17.80;99.90;;;;;;4978409;28;20097;-74
2022/06/25 04:41:17;;;;;;;12.32;6.32;;;17.80;99.90;;;;;;4961965;28;20499;-74
2022/06/25 04:43:43;;;;;;;11.80;6.53;;;17.80;99.90;;;;;;4962347;28;20117;-74
2022/06/25 04:46:09;;;;;;;7.35;6.05;;;17.90;99.90;;;;;;4977893;28;20509;-74
2022/06/25 04:48:34;;;;;;;6.45;5.85;;;17.80;99.90;;;;;;4961883;28;20165;-74
2022/06/25 04:51:00;;;;;;;11.00;6.13;;;17.90;99.90;;;;;;4977731;28;20035;-73
2022/06/25 04:53:26;;;;;;;7.70;6.18;;;17.90;99.90;;;;;;4977943;28;20037;-73
2022/06/25 04:55:51;;;;;;;9.43;6.65;;;17.90;99.90;;;;;;4977805;28;20038;-74
2022/06/25 04:58:17;;;;;;;7.75;6.82;;;17.90;99.90;;;;;;4977726;28;20082;-73
2022/06/25 05:00:43;;;;;;;8.02;6.50;;;17.90;99.90;;;;;;4977643;28;20130;-73
2022/06/25 05:03:09;;;;;;;7.53;6.10;;;17.90;99.90;;;;;;4977776;28;20125;-73
2022/06/25 05:05:35;;;;;;;7.82;7.10;;;17.90;99.90;;;;;;4961754;28;20414;-73
2022/06/25 05:08:01;;;;;;;9.82;7.13;;;17.90;99.90;;;;;;4993802;28;20089;-73
2022/06/25 05:10:26;;;;;;;8.65;6.65;;;18.00;99.90;;;;;;4977538;28;20035;-73
2022/06/25 05:15:37;;;;;;;9.73;6.60;;;18.00;99.90;;;;;;4977483;28;20050;-74
2022/06/25 05:18:03;;;;;;;7.90;6.68;;;18.10;99.90;;;;;;4977425;28;20034;-74
2022/06/25 05:20:29;;;;;;;8.63;6.80;;;18.10;99.90;;;;;;4977533;28;20482;-73
2022/06/25 05:22:55;;;;;;;9.73;7.03;;;18.10;99.90;;;;;;4961396;28;20046;-73
2022/06/25 05:25:20;;;;;;;10.63;6.78;;;18.20;99.90;;;;;;4961700;28;20080;-73
2022/06/25 05:27:46;;;;;;;10.95;6.40;;;18.20;99.90;;;;;;4977384;28;20649;-73
2022/06/25 05:30:11;;;;;;;8.20;6.32;;;18.20;99.90;;;;;;4977458;28;20030;-73
2022/06/25 05:32:37;;;;;;;7.97;6.50;;;18.30;99.90;;;;;;4977155;28;20537;-74
2022/06/25 05:35:04;;;;;;;8.65;6.80;;;18.30;99.90;;;;;;4977139;28;20038;-74
2022/06/25 05:37:29;;;;;;;7.70;6.35;;;18.40;99.90;;;;;;4977107;28;20050;-73
2022/06/25 05:39:55;;;;;;;9.35;6.20;;;18.40;99.90;;;;;;4960926;28;20129;-73
2022/06/25 05:42:21;;;;;;;6.95;6.20;;;18.40;99.90;;;;;;4960219;28;20038;-73
2022/06/25 05:44:47;;;;;;;7.93;5.72;;;18.50;99.90;;;;;;4961085;28;20046;-73
2022/06/25 05:47:13;;;;;;;6.90;6.20;;;18.50;99.90;;;;;;4976877;28;20046;-73
2022/06/25 05:49:38;;;;;;;9.07;6.10;;;18.60;99.90;;;;;;4961068;28;20502;-73
2022/06/25 05:52:05;;;;;;;12.05;5.78;;;18.60;99.90;;;;;;4976701;28;20509;-73
2022/06/25 05:54:30;;;;;;;7.53;6.53;;;18.70;99.90;;;;;;4977059;28;20402;-73
2022/06/25 05:56:56;;;;;;;7.93;6.10;;;18.70;99.90;;;;;;4976720;28;20692;-73
2022/06/25 05:59:21;;;;;;;7.22;5.80;;;18.80;99.90;;;;;;4976658;28;20100;-73
2022/06/25 06:01:47;;;;;;;9.35;6.30;;;18.90;99.90;;;;;;4976625;28;20041;-73
2022/06/25 06:04:13;;;;;;;8.30;5.55;;;19.00;99.90;;;;;;4976664;28;20061;-73
2022/06/25 06:06:38;;;;;;;7.97;5.60;;;19.00;99.90;;;;;;4960356;28;20046;-73
2022/06/25 06:09:04;;;;;;;7.78;5.10;;;19.10;99.90;;;;;;4976822;28;20466;-73
2022/06/25 06:11:29;;;;;;;6.47;5.30;;;19.20;99.90;;;;;;4976809;28;20042;-72
2022/06/25 06:13:55;;;;;;;9.50;4.72;;;19.20;99.90;;;;;;4976828;28;20513;-72
2022/06/25 06:16:20;;;;;;;8.40;5.05;;;19.30;99.90;;;;;;4976474;28;20559;-72
2022/06/25 06:18:46;;;;;;;8.43;5.13;;;19.30;99.90;;;;;;4960635;28;20145;-72
2022/06/25 06:21:12;;;;;;;6.75;4.85;;;19.30;99.90;;;;;;4976357;28;20129;-72
2022/06/25 06:23:37;;;;;;;6.68;4.47;;;19.40;99.90;;;;;;4960351;28;20498;-72
2022/06/25 06:26:03;;;;;;;9.48;5.00;;;19.40;99.90;;;;;;4977377;28;20160;-72
2022/06/25 06:28:28;;;;;;;6.07;4.60;;;19.50;99.90;;;;;;4976302;28;20514;-72
2022/06/25 06:30:54;;;;;;;8.32;4.72;;;19.60;99.90;;;;;;4976286;28;20042;-73
2022/06/25 06:33:19;;;;;;;6.63;4.45;;;19.70;99.90;;;;;;4976587;28;20064;-73
2022/06/25 06:35:45;;;;;;;7.93;4.43;;;19.80;99.90;;;;;;4976559;28;20117;-73
2022/06/25 06:38:10;;;;;;;5.35;3.95;;;19.80;99.90;;;;;;4976392;28;20491;-72
2022/06/25 06:40:36;;;;;;;9.18;4.22;;;19.90;99.90;;;;;;4976259;28;20178;-73
2022/06/25 06:43:02;;;;;;;7.50;4.10;;;20.00;99.90;;;;;;4976592;28;20038;-73
2022/06/25 06:45:28;;;;;;;6.80;3.70;;;20.10;99.90;;;;;;4976482;28;20430;-73
2022/06/25 06:47:53;;;;;;;6.60;3.50;;;20.20;99.90;;;;;;4976248;28;20042;-74
2022/06/25 06:50:19;;;;;;;5.32;3.50;;;20.20;99.90;;;;;;4976573;28;20035;-74
2022/06/25 06:52:44;;;;;;;8.23;3.90;;;20.30;99.90;;;;;;4976867;28;20408;-74
2022/06/25 06:55:10;;;;;;;7.03;4.22;;;20.40;99.90;;;;;;4980422;28;20035;-73
2022/06/25 06:57:36;;;;;;;8.32;3.67;;;20.50;99.90;;;;;;4980069;28;20491;-73
2022/06/25 07:00:06;;;;;;;6.13;3.40;;;20.60;99.90;;;;;;4980033;28;20074;-72
2022/06/25 07:02:32;;;;;;;4.75;3.08;;;20.60;99.90;;;;;;4980543;28;20042;-72
2022/06/25 07:04:58;;;;;;;8.02;2.92;;;20.70;99.90;;;;;;4964003;28;20100;-71
2022/06/25 07:07:24;;;;;;;6.85;2.95;;;20.70;99.90;;;;;;4979837;28;20042;-72
2022/06/25 07:09:49;;;;;;;4.40;2.60;;;20.80;99.90;;;;;;4979776;28;20155;-72
2022/06/25 07:12:15;;;;;;;6.10;2.80;;;20.90;99.90;;;;;;4980204;28;20049;-72
2022/06/25 07:14:41;;;;;;;7.88;3.42;;;21.00;99.90;;;;;;4980089;28;20045;-72
2022/06/25 07:17:07;;;;;;;8.10;3.15;;;21.00;99.90;;;;;;4979835;28;20518;-72
2022/06/25 07:19:32;;;;;;;6.93;2.60;;;21.10;99.90;;;;;;4996133;28;20121;-72
2022/06/25 07:21:58;;;;;;;9.85;2.90;;;21.10;99.90;;;;;;4979373;28;20418;-72
2022/06/25 07:24:24;;;;;;;7.72;2.55;;;21.20;99.90;;;;;;4963360;28;20065;-72
2022/06/25 07:26:50;;;;;;;5.53;2.65;;;21.20;99.90;;;;;;4979536;28;20039;-72
2022/06/25 07:29:16;;;;;;;7.95;2.92;;;21.30;99.90;;;;;;4996085;28;20054;-72
2022/06/25 07:31:42;;;;;;;7.78;2.70;;;21.30;99.90;;;;;;4995704;28;20544;-72
2022/06/25 07:34:08;;;;;;;6.70;2.72;;;21.40;99.90;;;;;;4995584;28;20124;-71
2022/06/25 07:36:34;;;;;;;7.45;2.67;;;21.50;99.90;;;;;;4979407;28;20174;-72
2022/06/25 07:39:03;;;;;;;9.05;2.55;;;21.70;99.90;;;;;;4979063;28;20041;-72
2022/06/25 07:41:30;;;;;;;8.38;2.50;;;21.80;99.90;;;;;;4962938;28;20038;-72
2022/06/25 07:43:55;;;;;;;6.32;2.28;;;21.90;99.90;;;;;;4979417;28;20096;-72
2022/06/25 07:46:21;;;;;;;5.43;2.30;;;21.90;99.90;;;;;;4979494;28;20038;-72
2022/06/25 07:48:47;;;;;;;9.73;2.20;;;21.90;99.90;;;;;;4979527;28;20514;-72
2022/06/25 07:53:57;;;;;;;5.68;2.15;;;22.10;99.90;;;;;;4979134;28;20047;-72
2022/06/25 07:56:23;;;;;;;5.65;2.25;;;22.20;99.90;;;;;;4979637;28;20042;-72
2022/06/25 07:58:49;;;;;;;5.53;2.20;;;22.30;99.90;;;;;;4979347;28;20093;-72
2022/06/25 08:01:15;;;;;;;9.50;2.35;;;22.40;99.90;;;;;;4978930;28;20039;-72
2022/06/25 08:03:41;;;;;;;4.95;2.45;;;22.50;99.90;;;;;;4995064;28;20038;-72
2022/06/25 08:06:07;;;;;;;4.45;2.42;;;22.60;99.90;;;;;;4977672;28;20074;-72
2022/06/25 08:08:33;;;;;;;6.05;2.55;;;22.60;99.90;;;;;;4978862;28;20041;-72
2022/06/25 08:10:58;;;;;;;10.73;2.13;;;22.70;99.90;;;;;;4995173;28;20042;-72
2022/06/25 08:13:25;;;;;;;5.70;1.83;;;22.80;99.90;;;;;;4978828;28;20406;-72
2022/06/25 08:15:51;;;;;;;4.55;1.73;;;22.90;99.90;;;;;;4978549;28;20049;-72
2022/06/25 08:18:17;;;;;;;6.13;1.77;;;22.90;99.90;;;;;;4978671;28;20034;-72
2022/06/25 08:20:43;;;;;;;4.32;2.00;;;23.00;99.90;;;;;;4978725;28;20402;-72
2022/06/25 08:23:08;;;;;;;3.83;1.77;;;23.10;99.90;;;;;;4978764;28;20487;-72
2022/06/25 08:25:34;;;;;;;7.55;2.10;;;23.20;99.90;;;;;;4978501;28;20491;-72
2022/06/25 08:28:00;;;;;;;3.60;1.48;;;23.50;99.90;;;;;;4978236;28;20042;-71
2022/06/25 08:30:26;;;;;;;9.10;1.27;;;23.50;99.90;;;;;;4978571;28;20145;-72
2022/06/25 08:32:53;;;;;;;4.00;1.10;;;23.40;99.90;;;;;;4978560;28;20042;-72
2022/06/25 08:35:18;;;;;;;6.13;1.40;;;23.30;99.90;;;;;;4978238;28;20046;-72
2022/06/25 08:37:49;;;;;;;3.17;1.10;;;23.20;99.90;;;;;;4978335;28;20042;-72
2022/06/25 08:40:16;;;;;;;4.85;1.13;;;23.30;99.90;;;;;;4994367;28;20034;-72
2022/06/25 08:42:43;;;;;;;3.58;1.27;;;23.30;99.90;;;;;;4994327;28;20045;-73
2022/06/25 08:45:09;;;;;;;7.10;1.60;;;23.50;99.90;;;;;;4978223;28;20042;-73
2022/06/25 08:47:42;;;;;;;7.32;1.40;;;23.60;99.90;;;;;;4978189;28;20052;-73
2022/06/25 08:50:09;;;;;;;5.45;1.50;;;23.80;99.90;;;;;;4977968;28;20045;-73
2022/06/25 08:52:37;;;;;;;5.32;1.88;;;23.90;99.90;;;;;;4961994;28;20491;-72
2022/06/25 08:55:03;;;;;;;4.13;1.30;;;23.90;99.90;;;;;;4962235;28;20158;-73
2022/06/25 08:57:30;;;;;;;4.18;1.50;;;24.00;99.90;;;;;;4977894;28;20082;-73
2022/06/25 08:59:56;;;;;;;4.95;1.40;;;24.10;99.90;;;;;;4978360;28;20097;-73
2022/06/25 09:02:21;;;;;;;4.10;1.42;;;23.90;99.90;;;;;;4977931;28;20517;-73
2022/06/25 09:04:47;;;;;;;2.92;1.35;;;23.80;99.90;;;;;;4977731;28;20177;-73
2022/06/25 09:07:15;;;;;;;4.22;1.40;;;23.70;99.90;;;;;;4961585;28;20078;-73
2022/06/25 09:09:45;;;;;;;4.80;1.50;;;23.60;99.90;;;;;;4977847;28;20041;-73
2022/06/25 09:12:14;;;;;;;5.80;1.90;;;23.60;99.90;;;;;;4977894;28;20057;-73
2022/06/25 09:14:40;;;;;;;5.70;1.55;;;23.70;99.90;;;;;;4977640;28;20038;-73
2022/06/25 09:17:12;;;;;;;3.13;1.38;;;23.80;99.90;;;;;;4993764;28;20046;-73
2022/06/25 09:19:51;;;;;;;5.57;1.25;;;24.00;99.90;;;;;;4977921;28;20128;-69
2022/06/25 09:22:20;;;;;;;4.22;1.50;;;24.30;99.90;;;;;;4977345;28;20057;-71
2022/06/25 09:24:57;;;;;;;3.45;1.30;;;24.60;99.90;;;;;;4993670;28;20124;-74
2022/06/25 09:27:28;;;;;;;4.10;1.00;;;24.90;99.90;;;;;;4995320;28;20039;-73
2022/06/25 09:29:54;;;;;;;3.13;1.40;;;25.10;99.90;;;;;;4977354;28;20046;-73
2022/06/25 09:32:20;;;;;;;5.40;1.25;;;25.00;99.90;;;;;;4977344;28;20038;-71
2022/06/25 09:34:46;;;;;;;4.47;1.20;;;25.20;99.90;;;;;;4977396;28;20038;-73
2022/06/25 09:37:26;;;;;;;6.65;1.38;;;25.20;99.90;;;;;;4961540;28;20042;-82
2022/06/25 09:39:54;;;;;;;6.72;1.67;;;25.30;99.90;;;;;;4977540;28;20512;-73
2022/06/25 09:42:26;;;;;;;2.08;1.00;;;25.60;99.90;;;;;;4976966;28;20053;-73
2022/06/25 09:45:12;;;;;;;3.33;1.07;;;25.70;99.90;;;;;;4960977;28;20042;-74
2022/06/25 09:47:44;;;;;;;5.18;1.20;;;25.90;99.90;;;;;;4960904;28;20042;-74
2022/06/25 09:50:13;;;;;;;2.55;0.90;;;25.90;99.90;;;;;;4960736;28;20038;-74
2022/06/25 09:52:52;;;;;;;4.53;1.00;;;26.00;99.90;;;;;;4977282;28;20494;-75
2022/06/25 09:55:20;;;;;;;5.00;1.20;;;26.10;99.90;;;;;;4976966;28;20380;-75
2022/06/25 09:57:47;;;;;;;5.47;1.63;;;26.30;99.90;;;;;;4993323;28;20046;-75
2022/06/25 10:00:14;;;;;;;3.80;1.20;;;26.40;99.90;;;;;;4960601;28;20092;-74
2022/06/25 10:02:44;;;;;;;3.08;1.00;;;26.40;99.90;;;;;;4976682;28;20050;-75
2022/06/25 10:05:11;;;;;;;3.38;1.15;;;26.20;99.90;;;;;;4976863;28;20050;-74
2022/06/25 10:10:22;;;;;;;2.25;1.08;;;26.20;99.90;;;;;;4977000;28;20042;-77
2022/06/25 10:12:50;;;;;;;3.50;1.00;;;26.50;99.90;;;;;;4960632;28;20137;-74
2022/06/25 10:15:17;;;;;;;2.38;0.80;;;26.60;98.60;;;;;;4960523;28;20045;-73
2022/06/25 10:17:53;;;;;;;3.47;1.10;;;26.70;99.90;;;;;;4976710;28;20488;-73
2022/06/25 10:20:20;;;;;;;7.70;1.02;;;26.60;97.90;;;;;;4976395;28;20490;-73
2022/06/25 10:22:48;;;;;;;3.70;1.05;;;26.40;99.40;;;;;;4976503;28;20410;-73
2022/06/25 10:25:16;;;;;;;6.07;0.93;;;26.20;98.50;;;;;;4976535;28;20046;-72
2022/06/25 10:27:47;;;;;;;6.35;1.20;;;26.10;99.90;;;;;;4975739;28;20046;-71
2022/06/25 10:30:34;;;;;;;3.70;0.80;;;26.30;99.90;;;;;;4976807;28;20038;-71
2022/06/25 10:33:00;;;;;;;3.63;0.88;;;26.60;99.80;;;;;;4976435;28;20073;-72
2022/06/25 10:35:32;;;;;;;3.67;0.90;;;26.70;99.90;;;;;;4976624;28;20077;-72
2022/06/25 10:38:03;;;;;;;4.68;0.98;;;26.60;98.30;;;;;;4976296;28;20050;-72
2022/06/25 10:40:30;;;;;;;4.22;0.90;;;26.60;99.50;;;;;;4960631;28;20121;-72
2022/06/25 10:43:00;;;;;;;2.17;0.70;;;26.70;99.90;;;;;;4976437;28;20046;-72
2022/06/25 10:45:26;;;;;;;5.28;0.90;;;26.60;98.60;;;;;;4976180;28;20410;-72
2022/06/25 10:47:57;;;;;;;2.80;0.90;;;26.40;97.30;;;;;;4976287;28;20051;-72
2022/06/25 10:50:22;;;;;;;3.58;0.70;;;26.20;98.60;;;;;;4975995;28;20053;-72
2022/06/25 10:53:03;;;;;;;3.38;0.90;;;26.20;99.30;;;;;;4960319;28;20038;-72
2022/06/25 10:55:57;;;;;;;4.28;1.13;;;25.90;98.80;;;;;;4976131;28;20457;-72
2022/06/25 10:58:25;;;;;;;2.85;0.77;;;25.70;99.90;;;;;;4976641;28;20046;-72
2022/06/25 11:00:51;;;;;;;3.30;0.95;;;25.40;99.90;;;;;;4960617;28;20061;-72
2022/06/25 11:03:30;;;;;;;7.10;1.13;;;25.60;99.90;;;;;;4992601;28;20081;-72
2022/06/25 11:05:57;;;;;;;5.70;0.80;;;25.60;99.90;;;;;;4976358;28;20046;-72
2022/06/25 11:08:34;;;;;;;2.53;0.75;;;25.50;99.90;;;;;;4960115;28;20553;-72
2022/06/25 11:11:00;;;;;;;4.57;0.95;;;25.30;99.90;;;;;;4976343;28;20038;-72
2022/06/25 11:13:27;;;;;;;4.82;0.90;;;25.00;99.90;;;;;;4976235;28;20537;-72
2022/06/25 11:15:53;;;;;;;6.47;0.98;;;24.90;99.90;;;;;;4975988;28;20042;-71
2022/06/25 11:18:18;;;;;;;3.10;0.80;;;24.70;99.90;;;;;;4959907;28;20136;-73
2022/06/25 11:20:46;;;;;;;2.78;0.80;;;24.60;99.90;;;;;;4976327;28;20039;-72
2022/06/25 11:23:13;;;;;;;2.83;0.80;;;24.60;99.90;;;;;;4975881;28;20498;-75
2022/06/25 11:28:47;;;;;;;3.72;0.90;;;24.60;99.90;;;;;;4976012;28;20495;-72
2022/06/25 11:31:14;;;;;;;5.63;1.10;;;24.50;99.90;;;;;;4975854;28;20035;-73
2022/06/25 11:33:40;;;;;;;5.72;1.10;;;24.50;99.90;;;;;;4975780;28;20561;-73
2022/06/25 11:36:10;;;;;;;3.88;0.90;;;24.50;99.90;;;;;;4975824;28;20089;-73
2022/06/25 11:38:36;;;;;;;8.35;1.33;;;24.60;99.90;;;;;;4991958;28;20037;-74
2022/06/25 11:41:03;;;;;;;2.55;0.80;;;24.70;99.90;;;;;;4963387;28;20046;-74
2022/06/25 11:43:29;;;;;;;2.80;0.77;;;24.70;99.90;;;;;;4963392;28;20042;-73
2022/06/25 11:45:59;;;;;;;4.43;0.95;;;24.70;99.90;;;;;;4979206;28;20459;-73
2022/06/25 11:48:30;;;;;;;4.63;0.98;;;24.70;99.90;;;;;;4962918;28;20499;-73
2022/06/25 11:50:59;;;;;;;3.53;1.00;;;24.60;99.90;;;;;;4962870;28;20118;-73
2022/06/25 11:53:25;;;;;;;5.43;0.73;;;24.40;99.90;;;;;;4978964;28;20042;-73
2022/06/25 11:56:02;;;;;;;3.35;1.05;;;24.30;99.90;;;;;;4963211;28;20042;-73
2022/06/25 11:58:30;;;;;;;2.78;1.00;;;24.20;99.90;;;;;;4979392;28;20046;-73
2022/06/25 12:00:57;;;;;;;5.53;1.33;;;24.00;99.90;;;;;;4979065;28;20038;-73
2022/06/25 12:03:25;;;;;;;6.60;1.42;;;24.00;99.90;;;;;;4979086;28;20030;-73
2022/06/25 12:05:51;;;;;;;4.65;1.10;;;23.90;99.90;;;;;;4994888;28;20042;-74
2022/06/25 12:08:17;;;;;;;6.38;1.48;;;23.70;99.90;;;;;;4978730;28;20042;-74
2022/06/25 12:10:45;;;;;;;3.03;1.20;;;23.60;99.90;;;;;;4978653;28;20080;-74
2022/06/25 12:13:16;;;;;;;2.80;1.30;;;23.50;99.90;;;;;;4978862;28;20084;-74
2022/06/25 12:15:42;;;;;;;5.43;1.33;;;23.50;99.90;;;;;;4978859;28;20144;-74
2022/06/25 12:18:08;;;;;;;4.13;1.67;;;23.50;99.90;;;;;;4978760;28;20518;-73
2022/06/25 12:20:34;;;;;;;4.95;1.35;;;23.50;99.90;;;;;;4978914;28;20038;-73
2022/06/25 12:23:00;;;;;;;4.15;1.40;;;23.50;99.90;;;;;;4978483;28;20085;-73
2022/06/25 12:25:35;;;;;;;6.15;1.63;;;23.50;99.90;;;;;;4978618;28;20384;-73
2022/06/25 12:28:01;;;;;;;3.05;1.30;;;23.60;99.90;;;;;;4978375;28;20053;-73
2022/06/25 12:30:32;;;;;;;3.42;1.30;;;23.50;99.90;;;;;;4978294;28;20125;-73
2022/06/25 12:33:13;;;;;;;4.95;1.35;;;23.50;99.90;;;;;;4978389;28;20564;-73
2022/06/25 12:35:45;;;;;;;5.78;1.50;;;23.50;99.90;;;;;;4978258;28;20132;-73
2022/06/25 12:38:13;;;;;;;3.45;1.17;;;23.40;99.90;;;;;;4978885;28;20068;-73
2022/06/25 12:40:44;;;;;;;4.10;1.67;;;23.30;99.90;;;;;;4978066;28;20054;-73
2022/06/25 12:43:11;;;;;;;4.15;1.17;;;23.20;99.90;;;;;;4978221;28;20050;-73
2022/06/25 12:45:40;;;;;;;4.00;1.40;;;23.20;99.90;;;;;;4978100;28;20054;-73
2022/06/25 12:48:09;;;;;;;2.33;1.40;;;23.10;99.90;;;;;;4994251;28;20510;-73
2022/06/25 12:50:36;;;;;;;3.20;1.50;;;23.10;99.90;;;;;;4961308;28;20118;-73
2022/06/25 12:53:13;;;;;;;2.90;1.38;;;23.10;99.90;;;;;;4978045;28;20046;-73
2022/06/25 12:55:44;;;;;;;4.15;1.50;;;23.10;99.90;;;;;;4994092;28;20039;-73
2022/06/25 12:58:14;;;;;;;4.13;1.30;;;23.10;99.90;;;;;;4978139;28;20121;-73